sensor_id;sensor_type;location;lat;lon;timestamp;P1;durP1;ratioP1;P2;durP2;ratioP2
75427;SDS011;64008;55.612;37.698;2022-10-16T00:00:56;7.18;;;2.90;;
75427;SDS011;64008;55.612;37.698;2022-10-16T00:03:22;7.35;;;3.55;;
75427;SDS011;64008;55.612;37.698;2022-10-16T00:05:47;8.95;;;3.40;;
75427;SDS011;64008;55.612;37.698;2022-10-16T00:08:13;7.95;;;3.20;;
75427;SDS011;64008;55.612;37.698;2022-10-16T00:10:39;12.55;;;3.65;;
75427;SDS011;64008;55.612;37.698;2022-10-16T00:13:05;9.23;;;3.42;;
75427;SDS011;64008;55.612;37.698;2022-10-16T00:15:35;9.90;;;3.63;;
75427;SDS011;64008;55.612;37.698;2022-10-16T00:18:01;9.07;;;3.53;;
75427;SDS011;64008;55.612;37.698;2022-10-16T00:20:28;7.38;;;3.25;;
75427;SDS011;64008;55.612;37.698;2022-10-16T00:22:54;9.00;;;3.45;;
75427;SDS011;64008;55.612;37.698;2022-10-16T00:25:19;8.40;;;3.80;;
75427;SDS011;64008;55.612;37.698;2022-10-16T00:27:45;10.02;;;3.83;;
75427;SDS011;64008;55.612;37.698;2022-10-16T00:30:10;7.45;;;3.55;;
75427;SDS011;64008;55.612;37.698;2022-10-16T00:32:36;8.38;;;3.53;;
75427;SDS011;64008;55.612;37.698;2022-10-16T00:35:01;9.82;;;3.28;;
75427;SDS011;64008;55.612;37.698;2022-10-16T00:37:28;11.00;;;3.70;;
75427;SDS011;64008;55.612;37.698;2022-10-16T00:39:54;8.00;;;3.40;;
75427;SDS011;64008;55.612;37.698;2022-10-16T00:42:19;7.65;;;3.40;;
75427;SDS011;64008;55.612;37.698;2022-10-16T00:47:35;9.38;;;2.97;;
75427;SDS011;64008;55.612;37.698;2022-10-16T00:50:18;7.45;;;2.83;;
75427;SDS011;64008;55.612;37.698;2022-10-16T00:52:53;10.05;;;3.70;;
75427;SDS011;64008;55.612;37.698;2022-10-16T00:55:20;8.57;;;3.53;;
75427;SDS011;64008;55.612;37.698;2022-10-16T00:57:45;9.50;;;4.15;;
75427;SDS011;64008;55.612;37.698;2022-10-16T01:00:14;8.05;;;3.45;;
75427;SDS011;64008;55.612;37.698;2022-10-16T01:02:41;9.70;;;3.70;;
75427;SDS011;64008;55.612;37.698;2022-10-16T01:05:07;8.10;;;3.95;;
75427;SDS011;64008;55.612;37.698;2022-10-16T01:13:04;10.82;;;3.78;;
75427;SDS011;64008;55.612;37.698;2022-10-16T01:15:42;7.85;;;3.42;;
75427;SDS011;64008;55.612;37.698;2022-10-16T01:21:18;7.18;;;2.85;;
75427;SDS011;64008;55.612;37.698;2022-10-16T01:23:48;8.90;;;3.22;;
75427;SDS011;64008;55.612;37.698;2022-10-16T01:31:56;8.82;;;3.65;;
75427;SDS011;64008;55.612;37.698;2022-10-16T01:34:29;8.10;;;3.55;;
75427;SDS011;64008;55.612;37.698;2022-10-16T01:37:03;8.95;;;3.05;;
75427;SDS011;64008;55.612;37.698;2022-10-16T01:39:37;11.25;;;3.65;;
75427;SDS011;64008;55.612;37.698;2022-10-16T01:42:09;7.07;;;3.38;;
75427;SDS011;64008;55.612;37.698;2022-10-16T01:44:39;8.60;;;3.25;;
75427;SDS011;64008;55.612;37.698;2022-10-16T01:47:07;7.70;;;3.38;;
75427;SDS011;64008;55.612;37.698;2022-10-16T01:49:36;8.95;;;3.55;;
75427;SDS011;64008;55.612;37.698;2022-10-16T01:52:08;9.02;;;3.33;;
75427;SDS011;64008;55.612;37.698;2022-10-16T01:54:37;8.63;;;3.25;;
75427;SDS011;64008;55.612;37.698;2022-10-16T01:57:06;8.13;;;3.67;;
75427;SDS011;64008;55.612;37.698;2022-10-16T01:59:35;7.38;;;3.50;;
75427;SDS011;64008;55.612;37.698;2022-10-16T02:02:04;8.35;;;3.55;;
75427;SDS011;64008;55.612;37.698;2022-10-16T02:04:34;7.95;;;3.58;;
75427;SDS011;64008;55.612;37.698;2022-10-16T02:07:04;7.50;;;3.45;;
75427;SDS011;64008;55.612;37.698;2022-10-16T02:09:31;7.95;;;3.03;;
75427;SDS011;64008;55.612;37.698;2022-10-16T02:11:59;9.50;;;3.88;;
75427;SDS011;64008;55.612;37.698;2022-10-16T02:14:28;9.85;;;3.85;;
75427;SDS011;64008;55.612;37.698;2022-10-16T02:16:54;12.13;;;4.03;;
75427;SDS011;64008;55.612;37.698;2022-10-16T02:19:19;8.25;;;3.90;;
75427;SDS011;64008;55.612;37.698;2022-10-16T02:21:48;9.55;;;3.40;;
75427;SDS011;64008;55.612;37.698;2022-10-16T02:26:52;8.18;;;3.08;;
75427;SDS011;64008;55.612;37.698;2022-10-16T02:29:26;6.45;;;3.15;;
75427;SDS011;64008;55.612;37.698;2022-10-16T02:31:54;9.25;;;3.45;;
75427;SDS011;64008;55.612;37.698;2022-10-16T02:34:23;12.32;;;3.83;;
75427;SDS011;64008;55.612;37.698;2022-10-16T02:39:17;7.28;;;2.97;;
75427;SDS011;64008;55.612;37.698;2022-10-16T02:44:10;6.63;;;3.08;;
75427;SDS011;64008;55.612;37.698;2022-10-16T02:46:35;7.85;;;3.25;;
75427;SDS011;64008;55.612;37.698;2022-10-16T02:49:01;8.55;;;3.55;;
75427;SDS011;64008;55.612;37.698;2022-10-16T02:51:26;7.20;;;3.60;;
75427;SDS011;64008;55.612;37.698;2022-10-16T02:53:52;7.63;;;3.30;;
75427;SDS011;64008;55.612;37.698;2022-10-16T02:56:17;9.25;;;3.80;;
75427;SDS011;64008;55.612;37.698;2022-10-16T02:58:43;7.85;;;3.50;;
75427;SDS011;64008;55.612;37.698;2022-10-16T03:01:09;8.75;;;3.50;;
75427;SDS011;64008;55.612;37.698;2022-10-16T03:03:34;7.93;;;2.58;;
75427;SDS011;64008;55.612;37.698;2022-10-16T03:06:00;8.00;;;3.38;;
75427;SDS011;64008;55.612;37.698;2022-10-16T03:08:25;9.32;;;4.65;;
75427;SDS011;64008;55.612;37.698;2022-10-16T03:10:51;7.40;;;3.95;;
75427;SDS011;64008;55.612;37.698;2022-10-16T03:13:17;7.53;;;3.63;;
75427;SDS011;64008;55.612;37.698;2022-10-16T03:15:43;12.00;;;3.80;;
75427;SDS011;64008;55.612;37.698;2022-10-16T03:18:09;8.57;;;4.28;;
75427;SDS011;64008;55.612;37.698;2022-10-16T03:20:34;9.20;;;4.50;;
75427;SDS011;64008;55.612;37.698;2022-10-16T03:23:00;9.55;;;4.10;;
75427;SDS011;64008;55.612;37.698;2022-10-16T03:25:25;7.35;;;3.47;;
75427;SDS011;64008;55.612;37.698;2022-10-16T03:27:51;9.35;;;3.67;;
75427;SDS011;64008;55.612;37.698;2022-10-16T03:30:16;10.70;;;4.25;;
75427;SDS011;64008;55.612;37.698;2022-10-16T03:32:43;10.15;;;4.03;;
75427;SDS011;64008;55.612;37.698;2022-10-16T03:35:09;10.48;;;4.13;;
75427;SDS011;64008;55.612;37.698;2022-10-16T03:37:35;13.40;;;4.68;;
75427;SDS011;64008;55.612;37.698;2022-10-16T03:40:01;10.10;;;5.05;;
75427;SDS011;64008;55.612;37.698;2022-10-16T03:42:27;9.48;;;3.70;;
75427;SDS011;64008;55.612;37.698;2022-10-16T03:44:52;17.00;;;5.43;;
75427;SDS011;64008;55.612;37.698;2022-10-16T03:47:18;11.43;;;4.45;;
75427;SDS011;64008;55.612;37.698;2022-10-16T03:49:48;9.90;;;4.50;;
75427;SDS011;64008;55.612;37.698;2022-10-16T03:52:14;9.02;;;4.25;;
75427;SDS011;64008;55.612;37.698;2022-10-16T03:54:40;10.40;;;5.03;;
75427;SDS011;64008;55.612;37.698;2022-10-16T03:57:05;8.13;;;3.95;;
75427;SDS011;64008;55.612;37.698;2022-10-16T03:59:32;9.65;;;3.50;;
75427;SDS011;64008;55.612;37.698;2022-10-16T04:01:57;8.88;;;4.45;;
75427;SDS011;64008;55.612;37.698;2022-10-16T04:04:23;10.77;;;4.35;;
75427;SDS011;64008;55.612;37.698;2022-10-16T04:06:49;13.75;;;5.03;;
75427;SDS011;64008;55.612;37.698;2022-10-16T04:09:15;15.18;;;4.70;;
75427;SDS011;64008;55.612;37.698;2022-10-16T04:11:41;8.30;;;4.88;;
75427;SDS011;64008;55.612;37.698;2022-10-16T04:14:06;9.23;;;3.97;;
75427;SDS011;64008;55.612;37.698;2022-10-16T04:16:32;7.88;;;3.75;;
75427;SDS011;64008;55.612;37.698;2022-10-16T04:18:57;8.95;;;4.45;;
75427;SDS011;64008;55.612;37.698;2022-10-16T04:21:22;11.77;;;4.75;;
75427;SDS011;64008;55.612;37.698;2022-10-16T04:23:48;9.52;;;4.00;;
75427;SDS011;64008;55.612;37.698;2022-10-16T04:26:14;11.57;;;4.65;;
75427;SDS011;64008;55.612;37.698;2022-10-16T04:28:39;13.07;;;5.55;;
75427;SDS011;64008;55.612;37.698;2022-10-16T04:31:05;8.82;;;3.78;;
75427;SDS011;64008;55.612;37.698;2022-10-16T04:33:32;10.02;;;5.50;;
75427;SDS011;64008;55.612;37.698;2022-10-16T04:35:59;11.88;;;5.85;;
75427;SDS011;64008;55.612;37.698;2022-10-16T04:38:25;12.10;;;5.40;;
75427;SDS011;64008;55.612;37.698;2022-10-16T04:40:51;11.95;;;4.53;;
75427;SDS011;64008;55.612;37.698;2022-10-16T04:43:17;12.80;;;5.47;;
75427;SDS011;64008;55.612;37.698;2022-10-16T04:45:43;14.35;;;5.65;;
75427;SDS011;64008;55.612;37.698;2022-10-16T04:48:08;9.18;;;4.32;;
75427;SDS011;64008;55.612;37.698;2022-10-16T04:50:34;12.68;;;6.13;;
75427;SDS011;64008;55.612;37.698;2022-10-16T04:52:59;10.50;;;5.18;;
75427;SDS011;64008;55.612;37.698;2022-10-16T04:55:25;8.52;;;3.67;;
75427;SDS011;64008;55.612;37.698;2022-10-16T04:57:50;10.65;;;5.38;;
75427;SDS011;64008;55.612;37.698;2022-10-16T05:00:16;14.27;;;6.55;;
75427;SDS011;64008;55.612;37.698;2022-10-16T05:02:41;13.43;;;5.65;;
75427;SDS011;64008;55.612;37.698;2022-10-16T05:05:07;8.68;;;3.40;;
75427;SDS011;64008;55.612;37.698;2022-10-16T05:07:32;15.70;;;5.20;;
75427;SDS011;64008;55.612;37.698;2022-10-16T05:09:58;13.57;;;5.88;;
75427;SDS011;64008;55.612;37.698;2022-10-16T05:12:23;13.40;;;5.57;;
75427;SDS011;64008;55.612;37.698;2022-10-16T05:14:49;10.73;;;4.90;;
75427;SDS011;64008;55.612;37.698;2022-10-16T05:17:14;11.57;;;4.82;;
75427;SDS011;64008;55.612;37.698;2022-10-16T05:19:40;11.63;;;4.97;;
75427;SDS011;64008;55.612;37.698;2022-10-16T05:22:05;13.38;;;5.72;;
75427;SDS011;64008;55.612;37.698;2022-10-16T05:24:31;10.10;;;4.80;;
75427;SDS011;64008;55.612;37.698;2022-10-16T05:26:56;9.82;;;5.10;;
75427;SDS011;64008;55.612;37.698;2022-10-16T05:29:22;12.05;;;5.10;;
75427;SDS011;64008;55.612;37.698;2022-10-16T05:31:49;8.70;;;3.92;;
75427;SDS011;64008;55.612;37.698;2022-10-16T05:34:15;11.05;;;5.13;;
75427;SDS011;64008;55.612;37.698;2022-10-16T05:36:41;8.63;;;4.45;;
75427;SDS011;64008;55.612;37.698;2022-10-16T05:39:06;11.65;;;4.68;;
75427;SDS011;64008;55.612;37.698;2022-10-16T05:41:32;11.77;;;4.93;;
75427;SDS011;64008;55.612;37.698;2022-10-16T05:43:57;9.10;;;3.95;;
75427;SDS011;64008;55.612;37.698;2022-10-16T05:46:23;10.70;;;3.80;;
75427;SDS011;64008;55.612;37.698;2022-10-16T05:48:51;14.95;;;4.38;;
75427;SDS011;64008;55.612;37.698;2022-10-16T05:51:18;13.15;;;4.47;;
75427;SDS011;64008;55.612;37.698;2022-10-16T05:53:43;12.75;;;5.15;;
75427;SDS011;64008;55.612;37.698;2022-10-16T05:56:09;8.88;;;3.67;;
75427;SDS011;64008;55.612;37.698;2022-10-16T05:58:37;9.20;;;3.90;;
75427;SDS011;64008;55.612;37.698;2022-10-16T06:01:09;10.52;;;3.97;;
75427;SDS011;64008;55.612;37.698;2022-10-16T06:03:39;9.52;;;3.63;;
75427;SDS011;64008;55.612;37.698;2022-10-16T06:06:18;6.20;;;3.05;;
75427;SDS011;64008;55.612;37.698;2022-10-16T06:08:49;8.60;;;3.67;;
75427;SDS011;64008;55.612;37.698;2022-10-16T06:11:15;7.18;;;3.13;;
75427;SDS011;64008;55.612;37.698;2022-10-16T06:13:42;9.75;;;3.33;;
75427;SDS011;64008;55.612;37.698;2022-10-16T06:16:11;9.10;;;3.25;;
75427;SDS011;64008;55.612;37.698;2022-10-16T06:18:37;9.27;;;4.18;;
75427;SDS011;64008;55.612;37.698;2022-10-16T06:21:07;7.18;;;3.33;;
75427;SDS011;64008;55.612;37.698;2022-10-16T06:23:34;10.05;;;4.32;;
75427;SDS011;64008;55.612;37.698;2022-10-16T06:26:06;13.93;;;3.60;;
75427;SDS011;64008;55.612;37.698;2022-10-16T06:28:36;8.20;;;3.65;;
75427;SDS011;64008;55.612;37.698;2022-10-16T06:31:02;21.73;;;7.25;;
75427;SDS011;64008;55.612;37.698;2022-10-16T06:35:59;17.63;;;5.43;;
75427;SDS011;64008;55.612;37.698;2022-10-16T06:38:29;10.00;;;4.43;;
75427;SDS011;64008;55.612;37.698;2022-10-16T06:40:55;11.18;;;4.53;;
75427;SDS011;64008;55.612;37.698;2022-10-16T06:43:21;12.07;;;4.53;;
75427;SDS011;64008;55.612;37.698;2022-10-16T06:45:50;10.25;;;4.57;;
75427;SDS011;64008;55.612;37.698;2022-10-16T06:48:20;11.57;;;4.10;;
75427;SDS011;64008;55.612;37.698;2022-10-16T06:50:55;9.90;;;3.90;;
75427;SDS011;64008;55.612;37.698;2022-10-16T06:53:22;9.40;;;3.90;;
75427;SDS011;64008;55.612;37.698;2022-10-16T06:55:48;9.13;;;2.33;;
75427;SDS011;64008;55.612;37.698;2022-10-16T06:58:13;14.23;;;5.22;;
75427;SDS011;64008;55.612;37.698;2022-10-16T07:00:39;12.25;;;4.88;;
75427;SDS011;64008;55.612;37.698;2022-10-16T07:03:04;8.82;;;3.38;;
75427;SDS011;64008;55.612;37.698;2022-10-16T07:05:29;17.88;;;5.00;;
75427;SDS011;64008;55.612;37.698;2022-10-16T07:07:55;12.18;;;4.20;;
75427;SDS011;64008;55.612;37.698;2022-10-16T07:10:20;3.88;;;1.77;;
75427;SDS011;64008;55.612;37.698;2022-10-16T07:12:49;8.02;;;3.58;;
75427;SDS011;64008;55.612;37.698;2022-10-16T07:15:14;12.35;;;3.20;;
75427;SDS011;64008;55.612;37.698;2022-10-16T07:17:40;8.23;;;3.08;;
75427;SDS011;64008;55.612;37.698;2022-10-16T07:20:06;11.40;;;3.33;;
75427;SDS011;64008;55.612;37.698;2022-10-16T07:22:31;8.30;;;3.10;;
75427;SDS011;64008;55.612;37.698;2022-10-16T07:24:57;7.25;;;2.85;;
75427;SDS011;64008;55.612;37.698;2022-10-16T07:27:23;7.25;;;2.65;;
75427;SDS011;64008;55.612;37.698;2022-10-16T07:29:49;10.77;;;3.28;;
75427;SDS011;64008;55.612;37.698;2022-10-16T07:32:14;11.88;;;2.70;;
75427;SDS011;64008;55.612;37.698;2022-10-16T07:34:40;5.93;;;2.50;;
75427;SDS011;64008;55.612;37.698;2022-10-16T07:37:06;7.85;;;3.10;;
75427;SDS011;64008;55.612;37.698;2022-10-16T07:39:32;5.50;;;2.20;;
75427;SDS011;64008;55.612;37.698;2022-10-16T07:41:57;10.75;;;2.92;;
75427;SDS011;64008;55.612;37.698;2022-10-16T07:44:23;6.60;;;2.50;;
75427;SDS011;64008;55.612;37.698;2022-10-16T07:46:48;8.77;;;3.67;;
75427;SDS011;64008;55.612;37.698;2022-10-16T07:49:14;8.10;;;2.85;;
75427;SDS011;64008;55.612;37.698;2022-10-16T07:51:39;3.78;;;1.92;;
75427;SDS011;64008;55.612;37.698;2022-10-16T07:54:05;8.85;;;2.97;;
75427;SDS011;64008;55.612;37.698;2022-10-16T07:56:31;12.45;;;3.08;;
75427;SDS011;64008;55.612;37.698;2022-10-16T07:58:57;10.23;;;3.90;;
75427;SDS011;64008;55.612;37.698;2022-10-16T08:01:24;9.65;;;3.42;;
75427;SDS011;64008;55.612;37.698;2022-10-16T08:03:50;9.43;;;3.80;;
75427;SDS011;64008;55.612;37.698;2022-10-16T08:06:17;8.57;;;2.90;;
75427;SDS011;64008;55.612;37.698;2022-10-16T08:08:44;7.18;;;2.53;;
75427;SDS011;64008;55.612;37.698;2022-10-16T08:11:09;7.18;;;3.03;;
75427;SDS011;64008;55.612;37.698;2022-10-16T08:13:35;8.80;;;2.72;;
75427;SDS011;64008;55.612;37.698;2022-10-16T08:16:01;5.55;;;2.70;;
75427;SDS011;64008;55.612;37.698;2022-10-16T08:18:28;7.03;;;2.58;;
75427;SDS011;64008;55.612;37.698;2022-10-16T08:20:57;6.60;;;2.60;;
75427;SDS011;64008;55.612;37.698;2022-10-16T08:23:24;6.20;;;2.67;;
75427;SDS011;64008;55.612;37.698;2022-10-16T08:25:52;6.70;;;2.88;;
75427;SDS011;64008;55.612;37.698;2022-10-16T08:30:43;7.85;;;2.75;;
75427;SDS011;64008;55.612;37.698;2022-10-16T08:33:09;5.72;;;2.03;;
75427;SDS011;64008;55.612;37.698;2022-10-16T08:35:34;6.55;;;2.70;;
75427;SDS011;64008;55.612;37.698;2022-10-16T08:38:02;6.88;;;2.70;;
75427;SDS011;64008;55.612;37.698;2022-10-16T08:40:32;8.30;;;2.78;;
75427;SDS011;64008;55.612;37.698;2022-10-16T08:43:12;7.32;;;2.85;;
75427;SDS011;64008;55.612;37.698;2022-10-16T08:48:50;7.68;;;2.45;;
75427;SDS011;64008;55.612;37.698;2022-10-16T08:51:29;7.25;;;2.17;;
75427;SDS011;64008;55.612;37.698;2022-10-16T08:53:58;8.82;;;3.13;;
75427;SDS011;64008;55.612;37.698;2022-10-16T08:56:26;11.15;;;3.58;;
75427;SDS011;64008;55.612;37.698;2022-10-16T08:58:52;8.68;;;2.25;;
75427;SDS011;64008;55.612;37.698;2022-10-16T09:01:19;7.43;;;2.35;;
75427;SDS011;64008;55.612;37.698;2022-10-16T09:22:55;10.25;;;3.53;;
75427;SDS011;64008;55.612;37.698;2022-10-16T09:25:33;20.42;;;8.00;;
75427;SDS011;64008;55.612;37.698;2022-10-16T09:27:59;8.07;;;2.65;;
75427;SDS011;64008;55.612;37.698;2022-10-16T09:30:26;10.25;;;4.53;;
75427;SDS011;64008;55.612;37.698;2022-10-16T09:32:54;8.07;;;2.50;;
75427;SDS011;64008;55.612;37.698;2022-10-16T09:35:25;6.35;;;2.65;;
75427;SDS011;64008;55.612;37.698;2022-10-16T09:37:58;7.80;;;2.72;;
75427;SDS011;64008;55.612;37.698;2022-10-16T09:40:31;9.18;;;2.80;;
75427;SDS011;64008;55.612;37.698;2022-10-16T09:43:23;8.00;;;3.63;;
75427;SDS011;64008;55.612;37.698;2022-10-16T09:48:48;7.47;;;2.53;;
75427;SDS011;64008;55.612;37.698;2022-10-16T09:54:02;6.43;;;1.90;;
75427;SDS011;64008;55.612;37.698;2022-10-16T09:56:39;6.53;;;3.05;;
75427;SDS011;64008;55.612;37.698;2022-10-16T09:59:10;6.63;;;2.17;;
75427;SDS011;64008;55.612;37.698;2022-10-16T10:01:37;4.60;;;2.00;;
75427;SDS011;64008;55.612;37.698;2022-10-16T10:04:05;6.43;;;2.28;;
75427;SDS011;64008;55.612;37.698;2022-10-16T10:09:15;7.82;;;2.50;;
75427;SDS011;64008;55.612;37.698;2022-10-16T10:11:59;5.18;;;1.45;;
75427;SDS011;64008;55.612;37.698;2022-10-16T10:33:12;4.80;;;2.00;;
75427;SDS011;64008;55.612;37.698;2022-10-16T10:35:56;8.52;;;3.45;;
75427;SDS011;64008;55.612;37.698;2022-10-16T10:38:56;6.75;;;2.60;;
75427;SDS011;64008;55.612;37.698;2022-10-16T10:50:41;7.38;;;2.72;;
75427;SDS011;64008;55.612;37.698;2022-10-16T10:56:10;7.35;;;3.42;;
75427;SDS011;64008;55.612;37.698;2022-10-16T11:07:04;4.63;;;1.73;;
75427;SDS011;64008;55.612;37.698;2022-10-16T11:09:36;7.53;;;2.47;;
75427;SDS011;64008;55.612;37.698;2022-10-16T11:17:42;5.45;;;2.10;;
75427;SDS011;64008;55.612;37.698;2022-10-16T11:20:14;5.53;;;1.77;;
75427;SDS011;64008;55.612;37.698;2022-10-16T11:22:48;6.85;;;2.03;;
75427;SDS011;64008;55.612;37.698;2022-10-16T11:25:20;4.60;;;1.70;;
75427;SDS011;64008;55.612;37.698;2022-10-16T11:28:05;5.35;;;2.65;;
75427;SDS011;64008;55.612;37.698;2022-10-16T11:33:51;5.45;;;1.77;;
75427;SDS011;64008;55.612;37.698;2022-10-16T11:41:50;5.10;;;1.90;;
75427;SDS011;64008;55.612;37.698;2022-10-16T11:44:41;5.80;;;2.00;;
75427;SDS011;64008;55.612;37.698;2022-10-16T11:50:34;10.82;;;3.33;;
75427;SDS011;64008;55.612;37.698;2022-10-16T11:55:54;11.07;;;5.18;;
75427;SDS011;64008;55.612;37.698;2022-10-16T11:58:27;5.32;;;1.95;;
75427;SDS011;64008;55.612;37.698;2022-10-16T12:06:01;6.45;;;1.80;;
75427;SDS011;64008;55.612;37.698;2022-10-16T12:08:44;8.10;;;2.00;;
75427;SDS011;64008;55.612;37.698;2022-10-16T12:14:04;4.85;;;1.90;;
75427;SDS011;64008;55.612;37.698;2022-10-16T12:16:39;5.05;;;1.95;;
75427;SDS011;64008;55.612;37.698;2022-10-16T12:19:17;4.85;;;1.70;;
75427;SDS011;64008;55.612;37.698;2022-10-16T12:21:44;6.63;;;2.22;;
75427;SDS011;64008;55.612;37.698;2022-10-16T12:27:03;5.70;;;2.42;;
75427;SDS011;64008;55.612;37.698;2022-10-16T12:29:41;7.45;;;2.00;;
75427;SDS011;64008;55.612;37.698;2022-10-16T12:35:01;5.03;;;1.55;;
75427;SDS011;64008;55.612;37.698;2022-10-16T12:37:35;5.53;;;1.85;;
75427;SDS011;64008;55.612;37.698;2022-10-16T12:42:47;6.93;;;1.85;;
75427;SDS011;64008;55.612;37.698;2022-10-16T12:47:54;6.10;;;1.95;;
75427;SDS011;64008;55.612;37.698;2022-10-16T12:50:28;6.50;;;2.40;;
75427;SDS011;64008;55.612;37.698;2022-10-16T12:52:56;5.47;;;1.73;;
75427;SDS011;64008;55.612;37.698;2022-10-16T12:55:22;5.55;;;1.63;;
75427;SDS011;64008;55.612;37.698;2022-10-16T13:14:37;5.80;;;2.00;;
75427;SDS011;64008;55.612;37.698;2022-10-16T13:23:34;7.22;;;2.20;;
75427;SDS011;64008;55.612;37.698;2022-10-16T13:26:10;4.97;;;1.88;;
75427;SDS011;64008;55.612;37.698;2022-10-16T13:28:38;5.68;;;1.67;;
75427;SDS011;64008;55.612;37.698;2022-10-16T13:31:04;6.25;;;2.55;;
75427;SDS011;64008;55.612;37.698;2022-10-16T13:33:42;7.63;;;2.20;;
75427;SDS011;64008;55.612;37.698;2022-10-16T13:36:20;8.30;;;2.30;;
75427;SDS011;64008;55.612;37.698;2022-10-16T13:38:47;4.57;;;2.00;;
75427;SDS011;64008;55.612;37.698;2022-10-16T13:41:14;7.90;;;2.33;;
75427;SDS011;64008;55.612;37.698;2022-10-16T13:43:46;7.13;;;2.40;;
75427;SDS011;64008;55.612;37.698;2022-10-16T13:48:41;5.63;;;2.00;;
75427;SDS011;64008;55.612;37.698;2022-10-16T13:51:15;6.18;;;1.45;;
75427;SDS011;64008;55.612;37.698;2022-10-16T13:53:42;5.72;;;2.10;;
75427;SDS011;64008;55.612;37.698;2022-10-16T13:56:13;6.45;;;2.03;;
75427;SDS011;64008;55.612;37.698;2022-10-16T13:58:41;5.47;;;1.80;;
75427;SDS011;64008;55.612;37.698;2022-10-16T14:01:18;6.55;;;2.38;;
75427;SDS011;64008;55.612;37.698;2022-10-16T14:03:52;7.13;;;2.22;;
75427;SDS011;64008;55.612;37.698;2022-10-16T14:06:26;4.82;;;1.80;;
75427;SDS011;64008;55.612;37.698;2022-10-16T14:08:55;6.28;;;2.28;;
75427;SDS011;64008;55.612;37.698;2022-10-16T14:11:22;5.90;;;2.13;;
75427;SDS011;64008;55.612;37.698;2022-10-16T14:13:49;4.80;;;1.70;;
75427;SDS011;64008;55.612;37.698;2022-10-16T14:16:23;6.03;;;1.92;;
75427;SDS011;64008;55.612;37.698;2022-10-16T14:19:03;8.50;;;2.15;;
75427;SDS011;64008;55.612;37.698;2022-10-16T14:21:31;6.05;;;2.30;;
75427;SDS011;64008;55.612;37.698;2022-10-16T14:23:58;5.22;;;1.83;;
75427;SDS011;64008;55.612;37.698;2022-10-16T14:26:25;6.93;;;2.42;;
75427;SDS011;64008;55.612;37.698;2022-10-16T14:29:03;8.60;;;2.55;;
75427;SDS011;64008;55.612;37.698;2022-10-16T14:31:36;7.15;;;2.92;;
75427;SDS011;64008;55.612;37.698;2022-10-16T14:34:02;6.72;;;2.65;;
75427;SDS011;64008;55.612;37.698;2022-10-16T14:36:28;7.53;;;2.97;;
75427;SDS011;64008;55.612;37.698;2022-10-16T14:39:13;9.70;;;2.85;;
75427;SDS011;64008;55.612;37.698;2022-10-16T14:41:45;9.35;;;3.25;;
75427;SDS011;64008;55.612;37.698;2022-10-16T14:44:12;8.38;;;2.92;;
75427;SDS011;64008;55.612;37.698;2022-10-16T14:46:39;8.90;;;2.88;;
75427;SDS011;64008;55.612;37.698;2022-10-16T14:51:39;8.05;;;3.10;;
75427;SDS011;64008;55.612;37.698;2022-10-16T14:54:08;6.57;;;2.70;;
75427;SDS011;64008;55.612;37.698;2022-10-16T14:56:41;8.93;;;3.35;;
75427;SDS011;64008;55.612;37.698;2022-10-16T14:59:28;8.70;;;3.13;;
75427;SDS011;64008;55.612;37.698;2022-10-16T15:02:02;7.47;;;3.42;;
75427;SDS011;64008;55.612;37.698;2022-10-16T15:04:43;11.35;;;4.60;;
75427;SDS011;64008;55.612;37.698;2022-10-16T15:07:08;10.93;;;3.78;;
75427;SDS011;64008;55.612;37.698;2022-10-16T15:09:34;10.57;;;3.72;;
75427;SDS011;64008;55.612;37.698;2022-10-16T15:11:59;14.10;;;4.65;;
75427;SDS011;64008;55.612;37.698;2022-10-16T15:14:25;11.43;;;5.32;;
75427;SDS011;64008;55.612;37.698;2022-10-16T15:16:50;11.00;;;4.00;;
75427;SDS011;64008;55.612;37.698;2022-10-16T15:19:16;12.68;;;4.70;;
75427;SDS011;64008;55.612;37.698;2022-10-16T15:21:42;13.80;;;4.80;;
75427;SDS011;64008;55.612;37.698;2022-10-16T15:24:09;11.85;;;4.82;;
75427;SDS011;64008;55.612;37.698;2022-10-16T15:26:37;11.57;;;4.57;;
75427;SDS011;64008;55.612;37.698;2022-10-16T15:31:30;12.40;;;5.10;;
75427;SDS011;64008;55.612;37.698;2022-10-16T15:33:56;14.10;;;4.60;;
75427;SDS011;64008;55.612;37.698;2022-10-16T15:36:29;10.75;;;4.30;;
75427;SDS011;64008;55.612;37.698;2022-10-16T15:39:01;10.80;;;4.47;;
75427;SDS011;64008;55.612;37.698;2022-10-16T15:41:41;14.10;;;5.63;;
75427;SDS011;64008;55.612;37.698;2022-10-16T15:44:07;11.45;;;4.80;;
75427;SDS011;64008;55.612;37.698;2022-10-16T15:46:32;11.40;;;4.30;;
75427;SDS011;64008;55.612;37.698;2022-10-16T15:48:59;12.82;;;5.00;;
75427;SDS011;64008;55.612;37.698;2022-10-16T15:51:25;12.95;;;5.43;;
75427;SDS011;64008;55.612;37.698;2022-10-16T15:53:55;12.00;;;4.43;;
75427;SDS011;64008;55.612;37.698;2022-10-16T15:56:22;11.98;;;5.00;;
75427;SDS011;64008;55.612;37.698;2022-10-16T15:58:50;13.40;;;5.00;;
75427;SDS011;64008;55.612;37.698;2022-10-16T16:01:16;12.85;;;4.85;;
75427;SDS011;64008;55.612;37.698;2022-10-16T16:03:42;13.18;;;5.45;;
75427;SDS011;64008;55.612;37.698;2022-10-16T16:08:36;15.77;;;5.28;;
75427;SDS011;64008;55.612;37.698;2022-10-16T16:11:03;13.63;;;6.15;;
75427;SDS011;64008;55.612;37.698;2022-10-16T16:13:30;15.82;;;4.25;;
75427;SDS011;64008;55.612;37.698;2022-10-16T16:15:56;15.75;;;5.90;;
75427;SDS011;64008;55.612;37.698;2022-10-16T16:18:22;16.17;;;6.05;;
75427;SDS011;64008;55.612;37.698;2022-10-16T16:20:49;12.70;;;5.45;;
75427;SDS011;64008;55.612;37.698;2022-10-16T16:23:15;8.27;;;3.13;;
75427;SDS011;64008;55.612;37.698;2022-10-16T16:25:40;12.13;;;4.43;;
75427;SDS011;64008;55.612;37.698;2022-10-16T16:28:06;14.32;;;4.88;;
75427;SDS011;64008;55.612;37.698;2022-10-16T16:30:32;14.40;;;5.90;;
75427;SDS011;64008;55.612;37.698;2022-10-16T16:32:57;19.52;;;6.45;;
75427;SDS011;64008;55.612;37.698;2022-10-16T16:35:23;12.68;;;5.50;;
75427;SDS011;64008;55.612;37.698;2022-10-16T16:37:50;16.23;;;5.07;;
75427;SDS011;64008;55.612;37.698;2022-10-16T16:40:15;16.58;;;4.80;;
75427;SDS011;64008;55.612;37.698;2022-10-16T16:42:41;11.80;;;4.90;;
75427;SDS011;64008;55.612;37.698;2022-10-16T16:45:06;12.52;;;4.70;;
75427;SDS011;64008;55.612;37.698;2022-10-16T16:47:32;11.55;;;5.15;;
75427;SDS011;64008;55.612;37.698;2022-10-16T16:49:58;15.23;;;5.28;;
75427;SDS011;64008;55.612;37.698;2022-10-16T16:52:24;12.05;;;5.22;;
75427;SDS011;64008;55.612;37.698;2022-10-16T16:54:49;12.65;;;6.20;;
75427;SDS011;64008;55.612;37.698;2022-10-16T16:57:19;13.68;;;5.47;;
75427;SDS011;64008;55.612;37.698;2022-10-16T16:59:45;12.00;;;3.85;;
75427;SDS011;64008;55.612;37.698;2022-10-16T17:02:11;18.45;;;5.85;;
75427;SDS011;64008;55.612;37.698;2022-10-16T17:04:37;15.25;;;4.95;;
75427;SDS011;64008;55.612;37.698;2022-10-16T17:07:02;8.90;;;3.90;;
75427;SDS011;64008;55.612;37.698;2022-10-16T17:09:28;13.50;;;5.20;;
75427;SDS011;64008;55.612;37.698;2022-10-16T17:11:53;12.15;;;6.07;;
75427;SDS011;64008;55.612;37.698;2022-10-16T17:14:19;13.68;;;5.05;;
75427;SDS011;64008;55.612;37.698;2022-10-16T17:16:45;10.98;;;5.32;;
75427;SDS011;64008;55.612;37.698;2022-10-16T17:19:14;12.02;;;4.50;;
75427;SDS011;64008;55.612;37.698;2022-10-16T17:21:41;12.68;;;5.47;;
75427;SDS011;64008;55.612;37.698;2022-10-16T17:24:07;14.35;;;5.43;;
75427;SDS011;64008;55.612;37.698;2022-10-16T17:26:33;11.30;;;5.28;;